Time;durP1;ratioP1;P1;durP2;ratioP2;P2;SDS_P1;SDS_P2;PMS_P1;PMS_P2;Temp;Humidity;BMP_temperature;BMP_pressure;BME280_temperature;BME280_humidity;BME280_pressure;Samples;Min_cycle;Max_cycle;Signal;HPM_P1;HPM_P2
2022/04/13 00:00:31;;;;;;;3.25;1.80;;;;;;;;;;7397543;19;20336;-79
2022/04/13 00:02:57;;;;;;;4.82;1.83;;;;;;;;;;7399053;19;20095;-81
2022/04/13 00:05:23;;;;;;;4.22;1.88;;;;;;;;;;7398691;19;20038;-79
2022/04/13 00:07:48;;;;;;;2.97;1.95;;;;;;;;;;7397496;19;20470;-81
2022/04/13 00:10:13;;;;;;;3.97;1.60;;;;;;;;;;7393330;19;20037;-81
2022/04/13 00:12:39;;;;;;;4.65;1.90;;;;;;;;;;7394645;19;20011;-80
2022/04/13 00:15:06;;;;;;;3.38;1.83;;;;;;;;;;7393531;19;19995;-80
2022/04/13 00:17:32;;;;;;;4.82;2.10;;;;;;;;;;7397301;19;20006;-80
2022/04/13 00:19:58;;;;;;;3.92;2.08;;;;;;;;;;7395675;19;20058;-79
2022/04/13 00:22:24;;;;;;;3.30;2.22;;;;;;;;;;7394070;19;20461;-80
2022/04/13 00:24:49;;;;;;;3.95;2.10;;;;;;;;;;7397904;19;20138;-80
2022/04/13 00:27:15;;;;;;;4.32;2.10;;;;;;;;;;7395629;19;20006;-80
2022/04/13 00:29:40;;;;;;;5.45;2.00;;;;;;;;;;7395536;19;19998;-79
2022/04/13 00:32:06;;;;;;;3.13;2.03;;;;;;;;;;7397026;19;20006;-80
2022/04/13 00:34:32;;;;;;;2.60;1.77;;;;;;;;;;7397279;19;20359;-79
2022/04/13 00:36:57;;;;;;;3.33;2.00;;;;;;;;;;7397382;19;20472;-79
2022/04/13 00:39:24;;;;;;;3.10;1.80;;;;;;;;;;7397227;19;20010;-80
2022/04/13 00:41:57;;;;;;;3.65;1.90;;;;;;;;;;7396163;19;20364;-80
2022/04/13 00:44:22;;;;;;;6.10;1.77;;;;;;;;;;7396993;19;20005;-80
2022/04/13 00:46:47;;;;;;;4.05;2.10;;;;;;;;;;7397402;19;19995;-79
2022/04/13 00:49:14;;;;;;;3.67;2.38;;;;;;;;;;7396277;19;20798;-80
2022/04/13 00:51:39;;;;;;;3.95;2.13;;;;;;;;;;7398777;19;20287;-79
2022/04/13 00:54:06;;;;;;;5.38;2.42;;;;;;;;;;7398959;19;20018;-81
2022/04/13 00:56:35;;;;;;;5.32;2.17;;;;;;;;;;7400808;19;20003;-80
2022/04/13 00:59:06;;;;;;;2.33;1.65;;;;;;;;;;7397454;19;20014;-80
2022/04/13 01:01:37;;;;;;;2.72;1.83;;;;;;;;;;7396632;19;20070;-80
2022/04/13 01:04:03;;;;;;;8.07;2.10;;;;;;;;;;7398615;19;20020;-80
2022/04/13 01:06:29;;;;;;;2.78;1.77;;;;;;;;;;7398692;19;20009;-80
2022/04/13 01:08:55;;;;;;;5.35;1.73;;;;;;;;;;7396509;19;20002;-81
2022/04/13 01:11:21;;;;;;;3.08;1.80;;;;;;;;;;7398509;19;20374;-80
2022/04/13 01:13:46;;;;;;;2.67;1.95;;;;;;;;;;7396380;19;20319;-80
2022/04/13 01:16:12;;;;;;;3.53;1.77;;;;;;;;;;7397143;19;20438;-80
2022/04/13 01:18:38;;;;;;;3.03;2.20;;;;;;;;;;7398930;19;20109;-81
2022/04/13 01:21:05;;;;;;;3.88;1.88;;;;;;;;;;7398526;19;20003;-80
2022/04/13 01:23:31;;;;;;;4.18;1.67;;;;;;;;;;7399466;19;20023;-81
2022/04/13 01:25:56;;;;;;;6.90;2.13;;;;;;;;;;7402018;19;20006;-81
2022/04/13 01:28:23;;;;;;;3.28;1.63;;;;;;;;;;7424610;19;20027;-81
2022/04/13 01:30:48;;;;;;;4.93;1.95;;;;;;;;;;7424776;19;20010;-81
2022/04/13 01:33:14;;;;;;;2.15;1.58;;;;;;;;;;7425069;19;20019;-81
2022/04/13 01:35:40;;;;;;;3.33;1.58;;;;;;;;;;7423568;19;20006;-81
2022/04/13 01:38:06;;;;;;;4.47;2.00;;;;;;;;;;7403808;19;20006;-80
2022/04/13 01:40:32;;;;;;;3.08;1.90;;;;;;;;;;7392590;19;20003;-81
2022/04/13 01:42:57;;;;;;;3.53;1.88;;;;;;;;;;7395302;19;20009;-79
2022/04/13 01:45:22;;;;;;;4.07;2.05;;;;;;;;;;7392320;19;20477;-79
2022/04/13 01:47:51;;;;;;;3.30;1.90;;;;;;;;;;7394625;19;20022;-79
2022/04/13 01:50:18;;;;;;;4.03;1.90;;;;;;;;;;7392994;19;20002;-79
2022/04/13 01:52:44;;;;;;;5.15;1.90;;;;;;;;;;7394644;19;19995;-80
2022/04/13 01:55:09;;;;;;;6.18;2.20;;;;;;;;;;7393464;19;19998;-79
2022/04/13 01:57:36;;;;;;;6.47;2.42;;;;;;;;;;7392686;19;20015;-79
2022/04/13 02:00:03;;;;;;;4.60;1.65;;;;;;;;;;7395116;19;19994;-79
2022/04/13 02:02:28;;;;;;;3.72;2.17;;;;;;;;;;7390910;19;20013;-79
2022/04/13 02:04:54;;;;;;;4.60;2.30;;;;;;;;;;7393001;19;20010;-79
2022/04/13 02:07:19;;;;;;;3.17;2.00;;;;;;;;;;7393742;19;20003;-79
2022/04/13 02:09:45;;;;;;;4.85;2.40;;;;;;;;;;7392361;19;20066;-80
2022/04/13 02:12:10;;;;;;;3.75;1.90;;;;;;;;;;7392703;19;20066;-79
2022/04/13 02:14:35;;;;;;;2.95;2.10;;;;;;;;;;7392586;19;20007;-79
2022/04/13 02:17:00;;;;;;;6.45;2.28;;;;;;;;;;7393166;19;20006;-79
2022/04/13 02:19:26;;;;;;;3.58;1.80;;;;;;;;;;7391498;19;20089;-80
2022/04/13 02:21:51;;;;;;;3.40;2.13;;;;;;;;;;7391387;19;20320;-81
2022/04/13 02:24:16;;;;;;;2.60;1.95;;;;;;;;;;7392935;19;20490;-79
2022/04/13 02:26:42;;;;;;;2.25;2.00;;;;;;;;;;7393031;19;19991;-79
2022/04/13 02:29:07;;;;;;;4.03;2.05;;;;;;;;;;7391017;19;20014;-81
2022/04/13 02:31:32;;;;;;;3.75;2.10;;;;;;;;;;7395727;19;19998;-79
2022/04/13 02:33:58;;;;;;;3.58;1.75;;;;;;;;;;7396020;19;20018;-80
2022/04/13 02:36:23;;;;;;;3.35;2.00;;;;;;;;;;7394020;19;20007;-80
2022/04/13 02:38:49;;;;;;;2.35;1.60;;;;;;;;;;7394359;19;20089;-79
2022/04/13 02:41:14;;;;;;;4.25;2.13;;;;;;;;;;7391550;19;19994;-79
2022/04/13 02:43:40;;;;;;;3.88;2.03;;;;;;;;;;7392452;19;20458;-80
2022/04/13 02:46:06;;;;;;;4.50;2.13;;;;;;;;;;7390397;19;20070;-80
2022/04/13 02:48:31;;;;;;;6.03;2.15;;;;;;;;;;7391595;19;20009;-79
2022/04/13 02:50:56;;;;;;;3.47;1.75;;;;;;;;;;7390703;19;20035;-80
2022/04/13 02:53:23;;;;;;;3.88;1.92;;;;;;;;;;7391392;19;19999;-79
2022/04/13 02:55:49;;;;;;;4.18;2.25;;;;;;;;;;7393164;19;20480;-80
2022/04/13 02:58:14;;;;;;;4.32;2.47;;;;;;;;;;7390862;19;20002;-80
2022/04/13 03:00:40;;;;;;;5.88;2.25;;;;;;;;;;7394613;19;19990;-81
2022/04/13 03:03:05;;;;;;;3.50;1.98;;;;;;;;;;7391949;19;20014;-79
2022/04/13 03:05:30;;;;;;;4.63;2.00;;;;;;;;;;7387338;19;20093;-78
2022/04/13 03:07:56;;;;;;;3.65;1.85;;;;;;;;;;7388748;19;20454;-78
2022/04/13 03:10:21;;;;;;;5.20;1.85;;;;;;;;;;7389661;19;20014;-77
2022/04/13 03:12:47;;;;;;;3.65;1.73;;;;;;;;;;7389252;19;20002;-79
2022/04/13 03:15:12;;;;;;;2.50;1.63;;;;;;;;;;7387761;19;20470;-78
2022/04/13 03:17:38;;;;;;;3.60;1.88;;;;;;;;;;7389639;19;20315;-78
2022/04/13 03:20:04;;;;;;;5.25;1.95;;;;;;;;;;7388096;19;20059;-78
2022/04/13 03:22:29;;;;;;;3.08;2.00;;;;;;;;;;7391288;19;20007;-78
2022/04/13 03:24:55;;;;;;;3.60;1.95;;;;;;;;;;7389441;19;20039;-78
2022/04/13 03:27:20;;;;;;;5.05;1.75;;;;;;;;;;7388275;19;20001;-77
2022/04/13 03:29:46;;;;;;;4.45;1.70;;;;;;;;;;7386968;19;20239;-78
2022/04/13 03:32:11;;;;;;;6.72;2.00;;;;;;;;;;7387588;19;20001;-80
2022/04/13 03:34:36;;;;;;;2.72;1.58;;;;;;;;;;7387948;19;20039;-80
2022/04/13 03:37:02;;;;;;;3.35;2.00;;;;;;;;;;7388262;19;19995;-80
2022/04/13 03:39:28;;;;;;;5.70;2.42;;;;;;;;;;7386052;19;20682;-80
2022/04/13 03:41:53;;;;;;;3.40;1.92;;;;;;;;;;7387352;19;20035;-80
2022/04/13 03:44:19;;;;;;;5.50;2.13;;;;;;;;;;7389063;19;20002;-81
2022/04/13 03:46:44;;;;;;;4.93;1.90;;;;;;;;;;7387942;19;19991;-79
2022/04/13 03:49:10;;;;;;;4.80;1.88;;;;;;;;;;7387008;19;20050;-80
2022/04/13 03:51:36;;;;;;;4.63;1.77;;;;;;;;;;7388677;19;20014;-77
2022/04/13 03:54:01;;;;;;;4.75;2.08;;;;;;;;;;7388755;19;20464;-81
2022/04/13 03:56:28;;;;;;;7.38;2.20;;;;;;;;;;7387152;19;20323;-80
2022/04/13 03:58:54;;;;;;;4.05;2.30;;;;;;;;;;7389676;19;20003;-80
2022/04/13 04:01:19;;;;;;;3.22;1.80;;;;;;;;;;7389402;19;19995;-80
2022/04/13 04:03:44;;;;;;;2.95;1.70;;;;;;;;;;7392356;19;20002;-79
2022/04/13 04:06:10;;;;;;;4.18;2.28;;;;;;;;;;7395178;19;20357;-79
2022/04/13 04:08:35;;;;;;;5.20;2.20;;;;;;;;;;7399535;19;20038;-78
2022/04/13 04:11:01;;;;;;;5.45;2.22;;;;;;;;;;7403259;19;20015;-79
2022/04/13 04:13:26;;;;;;;3.95;2.00;;;;;;;;;;7400490;19;20462;-79
2022/04/13 04:15:51;;;;;;;7.20;2.10;;;;;;;;;;7394868;19;20010;-78
2022/04/13 04:18:17;;;;;;;4.75;1.90;;;;;;;;;;7402018;19;20038;-79
2022/04/13 04:20:42;;;;;;;6.65;2.20;;;;;;;;;;7397461;19;20103;-79
2022/04/13 04:23:07;;;;;;;3.20;1.98;;;;;;;;;;7397270;19;19995;-78
2022/04/13 04:25:32;;;;;;;5.13;2.20;;;;;;;;;;7395815;19;19998;-78
2022/04/13 04:27:58;;;;;;;5.00;1.98;;;;;;;;;;7396560;19;20003;-79
2022/04/13 04:30:23;;;;;;;3.33;1.92;;;;;;;;;;7395468;19;20006;-79
2022/04/13 04:32:48;;;;;;;3.55;1.77;;;;;;;;;;7396477;19;20019;-79
2022/04/13 04:35:13;;;;;;;3.63;2.03;;;;;;;;;;7399029;19;20014;-79
2022/04/13 04:37:39;;;;;;;4.00;1.98;;;;;;;;;;7400538;19;20028;-78
2022/04/13 04:40:05;;;;;;;4.93;2.40;;;;;;;;;;7402905;19;20003;-81
2022/04/13 04:42:30;;;;;;;2.92;1.98;;;;;;;;;;7397024;19;20019;-80
2022/04/13 04:44:59;;;;;;;5.25;2.03;;;;;;;;;;7397199;19;20002;-80
2022/04/13 04:47:25;;;;;;;5.28;2.38;;;;;;;;;;7398526;19;20002;-81
2022/04/13 04:49:50;;;;;;;5.65;2.20;;;;;;;;;;7398638;19;20023;-80
2022/04/13 04:52:16;;;;;;;2.92;1.88;;;;;;;;;;7398660;19;19998;-80
2022/04/13 04:54:41;;;;;;;4.07;2.03;;;;;;;;;;7398367;19;20002;-81
2022/04/13 04:57:08;;;;;;;3.70;1.88;;;;;;;;;;7397435;19;20396;-81
2022/04/13 04:59:34;;;;;;;4.32;2.03;;;;;;;;;;7396243;19;20019;-81
2022/04/13 05:01:59;;;;;;;3.00;1.73;;;;;;;;;;7399983;19;20002;-82
2022/04/13 05:04:24;;;;;;;7.47;1.85;;;;;;;;;;7398203;19;20042;-80
2022/04/13 05:06:50;;;;;;;3.58;2.33;;;;;;;;;;7399117;19;20541;-81
2022/04/13 05:09:17;;;;;;;5.53;2.45;;;;;;;;;;7398404;19;20011;-82
2022/04/13 05:11:43;;;;;;;4.25;2.17;;;;;;;;;;7400423;19;20006;-81
2022/04/13 05:14:08;;;;;;;3.88;2.15;;;;;;;;;;7399478;19;20318;-81
2022/04/13 05:16:34;;;;;;;4.22;1.92;;;;;;;;;;7400007;19;20003;-81
2022/04/13 05:19:00;;;;;;;5.85;1.92;;;;;;;;;;7398327;19;20062;-81
2022/04/13 05:21:25;;;;;;;3.67;1.98;;;;;;;;;;7400187;19;20137;-81
2022/04/13 05:23:50;;;;;;;4.20;2.30;;;;;;;;;;7417152;19;20019;-81
2022/04/13 05:26:18;;;;;;;2.45;1.95;;;;;;;;;;7402255;19;20308;-81
2022/04/13 05:28:44;;;;;;;3.72;1.95;;;;;;;;;;7393113;19;20002;-80
2022/04/13 05:31:09;;;;;;;9.05;1.65;;;;;;;;;;7394916;19;20034;-79
2022/04/13 05:33:34;;;;;;;3.55;2.22;;;;;;;;;;7395001;19;20028;-79
2022/04/13 05:36:00;;;;;;;5.80;1.80;;;;;;;;;;7391847;19;20002;-79
2022/04/13 05:38:25;;;;;;;4.65;2.35;;;;;;;;;;7392679;19;20005;-80
2022/04/13 05:40:50;;;;;;;4.45;2.22;;;;;;;;;;7397968;19;19998;-81
2022/04/13 05:43:15;;;;;;;8.25;2.28;;;;;;;;;;7395984;19;20457;-80
2022/04/13 05:45:41;;;;;;;5.38;2.33;;;;;;;;;;7390470;19;20383;-79
2022/04/13 05:48:06;;;;;;;3.67;2.42;;;;;;;;;;7392315;19;20003;-82
2022/04/13 05:50:31;;;;;;;3.42;2.15;;;;;;;;;;7394207;19;20450;-80
2022/04/13 05:52:57;;;;;;;7.07;3.35;;;;;;;;;;7395463;19;20443;-80
2022/04/13 05:55:22;;;;;;;7.20;2.75;;;;;;;;;;7391186;19;20015;-80
2022/04/13 05:57:47;;;;;;;6.32;2.92;;;;;;;;;;7388560;19;20318;-80
2022/04/13 06:00:13;;;;;;;5.22;2.22;;;;;;;;;;7393181;19;20007;-80
2022/04/13 06:02:41;;;;;;;4.32;2.67;;;;;;;;;;7390429;19;20010;-79
2022/04/13 06:05:07;;;;;;;6.93;2.83;;;;;;;;;;7388848;19;20006;-80
2022/04/13 06:07:33;;;;;;;6.40;2.55;;;;;;;;;;7394650;19;20014;-80
2022/04/13 06:10:01;;;;;;;4.18;2.67;;;;;;;;;;7391894;19;19986;-79
2022/04/13 06:12:27;;;;;;;5.72;3.00;;;;;;;;;;7393228;19;20002;-80
2022/04/13 06:15:03;;;;;;;4.80;2.75;;;;;;;;;;7389507;19;20029;-79
2022/04/13 06:17:28;;;;;;;4.13;2.40;;;;;;;;;;7393248;19;20016;-80
2022/04/13 06:19:53;;;;;;;8.15;3.53;;;;;;;;;;7388766;19;20054;-81
2022/04/13 06:22:19;;;;;;;6.88;3.83;;;;;;;;;;7388703;19;20002;-78
2022/04/13 06:24:44;;;;;;;7.50;3.28;;;;;;;;;;7390020;19;20338;-79
2022/04/13 06:27:09;;;;;;;7.47;3.30;;;;;;;;;;7390187;19;20018;-81
2022/04/13 06:29:34;;;;;;;4.72;2.75;;;;;;;;;;7389303;19;20005;-79
2022/04/13 06:32:00;;;;;;;4.97;3.05;;;;;;;;;;7389635;19;20350;-78
2022/04/13 06:34:25;;;;;;;6.72;3.00;;;;;;;;;;7391175;19;20086;-80
2022/04/13 06:36:50;;;;;;;7.57;3.90;;;;;;;;;;7392445;19;20015;-80
2022/04/13 06:39:15;;;;;;;3.90;2.45;;;;;;;;;;7388547;19;20024;-79
2022/04/13 06:41:40;;;;;;;5.55;2.70;;;;;;;;;;7392682;19;19995;-80
2022/04/13 06:44:06;;;;;;;3.63;2.25;;;;;;;;;;7392265;19;20007;-80
2022/04/13 06:46:34;;;;;;;10.05;3.00;;;;;;;;;;7389265;19;20498;-79
2022/04/13 06:48:59;;;;;;;6.47;2.55;;;;;;;;;;7387953;19;20040;-79
2022/04/13 06:51:24;;;;;;;8.45;3.63;;;;;;;;;;7388117;19;20328;-78
2022/04/13 06:53:50;;;;;;;4.50;2.80;;;;;;;;;;7390017;19;19999;-78
2022/04/13 06:56:15;;;;;;;3.75;2.78;;;;;;;;;;7387902;19;19998;-81
2022/04/13 06:58:42;;;;;;;4.15;2.70;;;;;;;;;;7387700;19;20003;-79
2022/04/13 07:01:08;;;;;;;6.43;2.78;;;;;;;;;;7389460;19;20018;-80
2022/04/13 07:03:33;;;;;;;5.25;2.40;;;;;;;;;;7389718;19;20023;-78
2022/04/13 07:05:58;;;;;;;6.00;2.70;;;;;;;;;;7388044;19;20002;-78
2022/04/13 07:08:24;;;;;;;4.97;2.80;;;;;;;;;;7391016;19;19998;-78
2022/04/13 07:10:49;;;;;;;4.45;3.03;;;;;;;;;;7388708;19;20003;-78
2022/04/13 07:13:16;;;;;;;8.88;3.03;;;;;;;;;;7390017;19;20034;-78
2022/04/13 07:15:42;;;;;;;6.53;3.10;;;;;;;;;;7387751;19;20006;-79
2022/04/13 07:18:07;;;;;;;6.18;3.17;;;;;;;;;;7389993;19;20001;-79
2022/04/13 07:20:33;;;;;;;5.85;2.63;;;;;;;;;;7388308;19;20540;-78
2022/04/13 07:22:58;;;;;;;6.28;3.00;;;;;;;;;;7389971;19;19999;-78
2022/04/13 07:25:24;;;;;;;4.57;2.85;;;;;;;;;;7390154;19;20040;-81
2022/04/13 07:27:50;;;;;;;5.38;2.83;;;;;;;;;;7390401;19;20334;-78
2022/04/13 07:30:15;;;;;;;5.35;3.08;;;;;;;;;;7387844;19;20032;-79
2022/04/13 07:32:45;;;;;;;5.32;3.15;;;;;;;;;;7391857;19;19990;-79
2022/04/13 07:35:12;;;;;;;4.47;2.88;;;;;;;;;;7387834;19;20095;-78
2022/04/13 07:37:39;;;;;;;5.20;2.63;;;;;;;;;;7390287;19;20084;-78
2022/04/13 07:40:07;;;;;;;4.95;3.45;;;;;;;;;;7395746;19;20021;-78
2022/04/13 07:42:32;;;;;;;5.65;3.33;;;;;;;;;;7394103;19;20042;-79
2022/04/13 07:45:01;;;;;;;5.88;3.00;;;;;;;;;;7402611;19;20006;-78
2022/04/13 07:47:26;;;;;;;6.28;3.30;;;;;;;;;;7401589;19;20028;-78
2022/04/13 07:49:52;;;;;;;7.18;2.97;;;;;;;;;;7398725;19;19998;-79
2022/04/13 07:52:17;;;;;;;6.40;3.53;;;;;;;;;;7396886;19;20499;-80
2022/04/13 07:54:44;;;;;;;8.02;2.90;;;;;;;;;;7395059;19;20102;-79
2022/04/13 07:57:10;;;;;;;4.43;2.97;;;;;;;;;;7399934;19;20073;-81
2022/04/13 07:59:35;;;;;;;5.03;3.05;;;;;;;;;;7396866;19;20007;-79
2022/04/13 08:02:02;;;;;;;6.55;3.10;;;;;;;;;;7398016;19;20066;-81
2022/04/13 08:04:27;;;;;;;8.20;3.00;;;;;;;;;;7399577;19;20058;-79
2022/04/13 08:06:52;;;;;;;4.68;2.78;;;;;;;;;;7402072;19;19999;-81
2022/04/13 08:09:18;;;;;;;9.82;3.22;;;;;;;;;;7398882;19;20327;-80
2022/04/13 08:11:45;;;;;;;6.38;3.95;;;;;;;;;;7402051;19;20084;-81
2022/04/13 08:14:11;;;;;;;5.25;3.08;;;;;;;;;;7400221;19;20488;-80
2022/04/13 08:16:36;;;;;;;4.50;3.17;;;;;;;;;;7399195;19;19991;-80
2022/04/13 08:19:02;;;;;;;4.30;3.03;;;;;;;;;;7400778;19;20066;-79
2022/04/13 08:21:27;;;;;;;6.05;3.30;;;;;;;;;;7403656;19;19994;-81
2022/04/13 08:23:52;;;;;;;8.27;3.80;;;;;;;;;;7425947;19;20015;-77
2022/04/13 08:26:17;;;;;;;4.68;3.00;;;;;;;;;;7420848;19;19994;-78
2022/04/13 08:28:43;;;;;;;4.30;2.92;;;;;;;;;;7422191;19;20002;-79
2022/04/13 08:31:09;;;;;;;7.13;3.10;;;;;;;;;;7423023;19;20003;-78
2022/04/13 08:33:37;;;;;;;4.72;2.70;;;;;;;;;;7409699;19;20009;-79
2022/04/13 08:36:03;;;;;;;3.85;2.58;;;;;;;;;;7393152;19;20009;-79
2022/04/13 08:38:28;;;;;;;6.18;3.15;;;;;;;;;;7395511;19;21012;-80
2022/04/13 08:40:58;;;;;;;6.30;3.38;;;;;;;;;;7395879;19;20005;-78
2022/04/13 08:43:31;;;;;;;5.15;3.22;;;;;;;;;;7396798;19;20454;-81
2022/04/13 08:46:01;;;;;;;5.45;3.50;;;;;;;;;;7391688;19;20402;-79
2022/04/13 08:48:27;;;;;;;10.13;3.47;;;;;;;;;;7394960;19;20007;-80
2022/04/13 08:51:02;;;;;;;5.68;3.20;;;;;;;;;;7396328;19;20514;-79
2022/04/13 08:53:30;;;;;;;3.58;2.50;;;;;;;;;;7396323;19;20003;-80
2022/04/13 08:55:57;;;;;;;8.02;2.63;;;;;;;;;;7394556;19;20514;-79
2022/04/13 08:58:40;;;;;;;4.10;2.75;;;;;;;;;;7394848;19;19995;-80
2022/04/13 09:01:16;;;;;;;6.07;3.17;;;;;;;;;;7394458;19;20011;-80
2022/04/13 09:03:47;;;;;;;7.00;3.15;;;;;;;;;;7395931;19;19998;-79
2022/04/13 09:06:14;;;;;;;6.25;3.10;;;;;;;;;;7392576;19;20139;-80
2022/04/13 09:08:48;;;;;;;4.70;3.00;;;;;;;;;;7395108;19;19999;-80
2022/04/13 09:11:14;;;;;;;10.13;3.20;;;;;;;;;;7398324;19;20556;-79
2022/04/13 09:13:40;;;;;;;6.97;3.38;;;;;;;;;;7400737;19;19999;-78
2022/04/13 09:16:05;;;;;;;6.10;2.92;;;;;;;;;;7395258;19;20031;-80
2022/04/13 09:18:31;;;;;;;4.40;2.92;;;;;;;;;;7395838;19;20003;-80
2022/04/13 09:20:58;;;;;;;5.57;3.13;;;;;;;;;;7394719;19;20478;-78
2022/04/13 09:23:24;;;;;;;5.25;2.90;;;;;;;;;;7395493;19;19995;-79
2022/04/13 09:25:54;;;;;;;6.85;3.17;;;;;;;;;;7394488;19;20002;-79
2022/04/13 09:28:20;;;;;;;6.25;3.00;;;;;;;;;;7394875;19;20009;-80
2022/04/13 09:30:45;;;;;;;3.38;2.70;;;;;;;;;;7393927;19;19999;-81
2022/04/13 09:33:11;;;;;;;5.55;3.03;;;;;;;;;;7395869;19;20009;-81
2022/04/13 09:35:36;;;;;;;5.57;2.85;;;;;;;;;;7393208;19;20025;-80
2022/04/13 09:38:03;;;;;;;4.88;2.80;;;;;;;;;;7394756;19;19999;-80
2022/04/13 09:40:33;;;;;;;3.33;2.47;;;;;;;;;;7394155;19;19999;-79
2022/04/13 09:43:13;;;;;;;4.75;2.95;;;;;;;;;;7398378;19;20305;-80
2022/04/13 09:45:42;;;;;;;5.50;2.67;;;;;;;;;;7393329;19;20369;-80
2022/04/13 09:48:09;;;;;;;5.95;2.60;;;;;;;;;;7393540;19;19998;-80
2022/04/13 09:50:36;;;;;;;5.68;2.92;;;;;;;;;;7395289;19;20013;-79
2022/04/13 09:53:05;;;;;;;7.47;2.97;;;;;;;;;;7395761;19;20061;-80
2022/04/13 09:55:33;;;;;;;7.90;3.70;;;;;;;;;;7394680;19;20058;-81
2022/04/13 09:58:05;;;;;;;4.97;2.78;;;;;;;;;;7396700;19;19999;-81
2022/04/13 10:00:30;;;;;;;8.57;2.80;;;;;;;;;;7392644;19;20026;-81
2022/04/13 10:03:06;;;;;;;4.97;2.42;;;;;;;;;;7398389;19;19999;-79
2022/04/13 10:05:31;;;;;;;4.82;2.65;;;;;;;;;;7395565;19;20374;-80
2022/04/13 10:08:05;;;;;;;3.90;2.47;;;;;;;;;;7399518;19;20002;-81
2022/04/13 10:10:30;;;;;;;4.60;2.60;;;;;;;;;;7395352;19;20003;-81
2022/04/13 10:12:55;;;;;;;4.35;2.90;;;;;;;;;;7394937;19;20839;-81
2022/04/13 10:15:21;;;;;;;4.43;2.75;;;;;;;;;;7394492;19;20026;-81
2022/04/13 10:17:46;;;;;;;5.90;2.70;;;;;;;;;;7397025;19;19995;-80
2022/04/13 10:20:12;;;;;;;6.72;3.00;;;;;;;;;;7397084;19;20006;-81
2022/04/13 10:23:00;;;;;;;2.72;2.00;;;;;;;;;;7397573;19;19998;-81
2022/04/13 10:25:29;;;;;;;3.15;2.50;;;;;;;;;;7394145;19;20350;-81
2022/04/13 10:27:55;;;;;;;6.55;2.50;;;;;;;;;;7396894;19;20034;-81
2022/04/13 10:30:28;;;;;;;6.63;2.70;;;;;;;;;;7403627;19;20010;-80
2022/04/13 10:33:17;;;;;;;3.53;2.30;;;;;;;;;;7414407;19;20005;-81
2022/04/13 10:35:45;;;;;;;5.80;2.38;;;;;;;;;;7391175;19;20034;-81
2022/04/13 10:38:12;;;;;;;4.13;2.67;;;;;;;;;;7392013;19;20030;-82
2022/04/13 10:40:41;;;;;;;3.58;2.55;;;;;;;;;;7391380;19;20023;-82
2022/04/13 10:43:09;;;;;;;4.55;2.85;;;;;;;;;;7392617;19;20073;-80
2022/04/13 10:45:38;;;;;;;4.45;2.83;;;;;;;;;;7390756;19;20006;-82
2022/04/13 10:48:09;;;;;;;5.63;2.92;;;;;;;;;;7392650;19;19998;-80
2022/04/13 10:50:40;;;;;;;4.72;2.78;;;;;;;;;;7395129;19;20093;-81
2022/04/13 10:53:36;;;;;;;4.20;2.70;;;;;;;;;;7395762;19;20002;-81
2022/04/13 10:56:03;;;;;;;3.63;2.50;;;;;;;;;;7393903;19;19998;-82
2022/04/13 10:59:20;;;;;;;4.38;2.80;;;;;;;;;;7388676;19;20350;-81
2022/04/13 11:01:46;;;;;;;4.47;2.42;;;;;;;;;;7387668;19;20501;-79
2022/04/13 11:04:12;;;;;;;4.25;3.00;;;;;;;;;;7391089;19;20055;-79
2022/04/13 11:06:40;;;;;;;5.47;2.60;;;;;;;;;;7393623;19;20551;-80
2022/04/13 11:09:21;;;;;;;3.17;2.17;;;;;;;;;;7389499;19;20005;-80
2022/04/13 11:11:48;;;;;;;4.07;2.53;;;;;;;;;;7394217;19;20039;-81
2022/04/13 11:14:18;;;;;;;4.65;2.92;;;;;;;;;;7396460;19;20441;-81
2022/04/13 11:16:44;;;;;;;5.03;2.90;;;;;;;;;;7399900;19;20002;-79
2022/04/13 11:19:09;;;;;;;5.95;2.83;;;;;;;;;;7400391;19;20003;-79
2022/04/13 11:21:54;;;;;;;4.00;2.73;;;;;;;;;;7399475;19;20340;-79
2022/04/13 11:24:37;;;;;;;4.43;2.95;;;;;;;;;;7400542;19;20247;-79
2022/04/13 11:27:04;;;;;;;8.38;3.60;;;;;;;;;;7401636;19;20038;-80
2022/04/13 11:29:40;;;;;;;9.20;3.63;;;;;;;;;;7397786;19;20482;-79
2022/04/13 11:32:09;;;;;;;6.85;2.90;;;;;;;;;;7399862;19;20067;-79
2022/04/13 11:34:48;;;;;;;4.13;2.58;;;;;;;;;;7397960;19;20002;-79
2022/04/13 11:37:35;;;;;;;6.28;3.22;;;;;;;;;;7398999;19;20007;-79
2022/04/13 11:40:10;;;;;;;5.10;3.20;;;;;;;;;;7399335;19;20791;-79
2022/04/13 11:42:35;;;;;;;5.05;2.70;;;;;;;;;;7397668;19;20025;-81
2022/04/13 11:45:06;;;;;;;8.07;3.10;;;;;;;;;;7396057;19;20002;-80
2022/04/13 11:47:53;;;;;;;7.13;3.47;;;;;;;;;;7398106;19;20011;-80
2022/04/13 11:50:18;;;;;;;7.50;3.38;;;;;;;;;;7399496;19;20005;-80
2022/04/13 11:52:46;;;;;;;6.23;3.30;;;;;;;;;;7398485;19;20368;-81
2022/04/13 11:55:25;;;;;;;4.93;3.00;;;;;;;;;;7396246;19;20263;-79
2022/04/13 11:58:08;;;;;;;4.70;3.00;;;;;;;;;;7397782;19;20027;-79
2022/04/13 12:00:56;;;;;;;5.57;3.40;;;;;;;;;;7398834;19;20527;-80
2022/04/13 12:03:21;;;;;;;4.82;3.05;;;;;;;;;;7400127;19;20019;-79
2022/04/13 12:05:47;;;;;;;7.10;3.72;;;;;;;;;;7395650;19;20015;-80
2022/04/13 12:08:18;;;;;;;8.80;3.38;;;;;;;;;;7397601;19;20030;-79
2022/04/13 12:11:10;;;;;;;5.93;3.40;;;;;;;;;;7397377;19;20049;-80
2022/04/13 12:13:55;;;;;;;5.13;3.42;;;;;;;;;;7397874;19;20014;-80
2022/04/13 12:16:25;;;;;;;4.53;3.05;;;;;;;;;;7396711;19;20003;-80
2022/04/13 12:18:52;;;;;;;5.65;2.83;;;;;;;;;;7395944;19;20022;-80
2022/04/13 12:21:24;;;;;;;4.78;2.63;;;;;;;;;;7396287;19;20029;-80
2022/04/13 12:23:50;;;;;;;4.75;2.78;;;;;;;;;;7397269;19;20021;-80
2022/04/13 12:26:16;;;;;;;4.47;2.38;;;;;;;;;;7395532;19;19999;-80
2022/04/13 12:28:41;;;;;;;4.07;2.90;;;;;;;;;;7398181;19;20020;-81
2022/04/13 12:31:09;;;;;;;6.05;3.13;;;;;;;;;;7401674;19;19994;-81
2022/04/13 12:33:36;;;;;;;4.13;2.63;;;;;;;;;;7399581;19;20021;-80
2022/04/13 12:36:10;;;;;;;4.40;2.78;;;;;;;;;;7396936;19;20070;-80
2022/04/13 12:38:43;;;;;;;5.70;2.85;;;;;;;;;;7396131;19;20005;-80
2022/04/13 12:41:16;;;;;;;4.28;2.60;;;;;;;;;;7396046;19;19995;-80
2022/04/13 12:43:43;;;;;;;5.30;2.30;;;;;;;;;;7396261;19;19998;-81
2022/04/13 12:46:08;;;;;;;5.80;2.20;;;;;;;;;;7395017;19;20050;-80
2022/04/13 12:48:34;;;;;;;4.18;2.53;;;;;;;;;;7394786;19;20016;-81
2022/04/13 12:51:01;;;;;;;4.85;2.72;;;;;;;;;;7394807;19;20142;-81
2022/04/13 12:53:27;;;;;;;6.85;2.50;;;;;;;;;;7394012;19;20058;-79
2022/04/13 12:55:57;;;;;;;3.20;2.30;;;;;;;;;;7393772;19;20003;-79
2022/04/13 12:58:23;;;;;;;5.72;2.35;;;;;;;;;;7395076;19;20006;-79
2022/04/13 13:00:51;;;;;;;6.88;2.03;;;;;;;;;;7394148;19;20134;-79
2022/04/13 13:03:17;;;;;;;5.82;1.98;;;;;;;;;;7397791;19;20018;-79
2022/04/13 13:05:43;;;;;;;2.42;1.85;;;;;;;;;;7395900;19;20002;-79
2022/04/13 13:08:08;;;;;;;4.38;2.45;;;;;;;;;;7397054;19;20068;-79
2022/04/13 13:10:34;;;;;;;4.25;2.50;;;;;;;;;;7394474;19;20478;-78
2022/04/13 13:13:18;;;;;;;3.55;2.17;;;;;;;;;;7397095;19;20021;-78
2022/04/13 13:15:45;;;;;;;3.95;2.28;;;;;;;;;;7396894;19;20031;-80
2022/04/13 13:18:10;;;;;;;6.13;2.65;;;;;;;;;;7395742;19;20003;-80
2022/04/13 13:20:53;;;;;;;3.60;2.58;;;;;;;;;;7400779;19;20094;-80
2022/04/13 13:23:30;;;;;;;4.55;2.10;;;;;;;;;;7400384;19;20010;-80
2022/04/13 13:25:57;;;;;;;4.45;2.25;;;;;;;;;;7393237;19;19999;-79
2022/04/13 13:28:29;;;;;;;4.47;2.00;;;;;;;;;;7391997;19;20084;-79
2022/04/13 13:30:57;;;;;;;4.57;2.30;;;;;;;;;;7392389;19;19999;-78
2022/04/13 13:33:23;;;;;;;6.18;2.28;;;;;;;;;;7394012;19;20007;-79
2022/04/13 13:35:48;;;;;;;4.65;2.25;;;;;;;;;;7388614;19;20018;-78
2022/04/13 13:38:19;;;;;;;4.93;2.20;;;;;;;;;;7391870;19;20010;-79
2022/04/13 13:40:46;;;;;;;11.43;2.22;;;;;;;;;;7392454;19;20002;-78
2022/04/13 13:43:25;;;;;;;4.45;2.03;;;;;;;;;;7391811;19;20006;-79
2022/04/13 13:45:52;;;;;;;7.20;2.13;;;;;;;;;;7390403;19;19994;-78
2022/04/13 13:48:25;;;;;;;3.85;2.17;;;;;;;;;;7391205;19;20006;-79
2022/04/13 13:50:52;;;;;;;3.80;2.10;;;;;;;;;;7391604;19;20018;-78
2022/04/13 13:53:19;;;;;;;3.58;2.00;;;;;;;;;;7392194;19;20023;-79
2022/04/13 13:55:46;;;;;;;4.72;2.08;;;;;;;;;;7392895;19;20007;-79
2022/04/13 13:58:11;;;;;;;4.25;2.30;;;;;;;;;;7392373;19;20688;-79
2022/04/13 14:00:37;;;;;;;4.50;2.38;;;;;;;;;;7391074;19;20436;-79
2022/04/13 14:03:05;;;;;;;3.20;2.13;;;;;;;;;;7391764;19;20297;-79
2022/04/13 14:05:31;;;;;;;3.75;2.28;;;;;;;;;;7390632;19;20009;-78
2022/04/13 14:07:59;;;;;;;2.47;1.92;;;;;;;;;;7392802;19;19998;-79
2022/04/13 14:10:25;;;;;;;3.67;2.03;;;;;;;;;;7394259;19;20521;-78
2022/04/13 14:12:51;;;;;;;3.05;2.00;;;;;;;;;;7392135;19;19999;-79
2022/04/13 14:15:17;;;;;;;4.38;2.33;;;;;;;;;;7389211;19;20026;-78
2022/04/13 14:17:44;;;;;;;7.40;2.45;;;;;;;;;;7391513;19;20483;-78
2022/04/13 14:20:11;;;;;;;5.85;2.72;;;;;;;;;;7390499;19;20003;-78
2022/04/13 14:22:38;;;;;;;5.10;2.60;;;;;;;;;;7387839;19;20111;-78
2022/04/13 14:25:07;;;;;;;4.70;2.38;;;;;;;;;;7389197;19;20025;-78
2022/04/13 14:27:34;;;;;;;2.78;1.88;;;;;;;;;;7392213;19;20119;-79
2022/04/13 14:30:00;;;;;;;5.32;2.67;;;;;;;;;;7389320;19;20078;-79
2022/04/13 14:32:27;;;;;;;4.65;2.20;;;;;;;;;;7390972;19;20006;-79
2022/04/13 14:34:53;;;;;;;3.70;2.30;;;;;;;;;;7390050;19;20592;-78
2022/04/13 14:37:19;;;;;;;9.30;2.90;;;;;;;;;;7391024;19;20035;-79
2022/04/13 14:39:45;;;;;;;10.90;2.78;;;;;;;;;;7389800;19;20069;-79
2022/04/13 14:42:11;;;;;;;4.05;2.53;;;;;;;;;;7391325;19;20426;-79
2022/04/13 14:44:36;;;;;;;4.72;2.20;;;;;;;;;;7390206;19;20358;-80